createdAt,value
2022-09-07T00:08:36.830Z,100853.06
2022-09-07T00:18:43.792Z,100844.66
2022-09-07T00:28:50.345Z,100843.87
2022-09-07T00:38:54.556Z,100854.41
2022-09-07T00:49:00.516Z,100853.00
2022-09-07T00:59:04.645Z,100849.34
2022-09-07T01:09:11.718Z,100851.56
2022-09-07T01:19:14.646Z,100840.34
2022-09-07T01:29:33.106Z,100838.53
2022-09-07T01:39:48.136Z,100831.44
2022-09-07T01:50:19.076Z,100820.94
2022-09-07T02:00:22.419Z,100832.03
2022-09-07T02:10:41.873Z,100833.13
2022-09-07T02:20:50.475Z,100832.88
2022-09-07T02:30:53.670Z,100818.88
2022-09-07T02:40:59.333Z,100789.47
2022-09-07T03:01:54.663Z,100796.59
2022-09-07T03:11:58.129Z,100788.50
2022-09-07T03:22:01.086Z,100792.72
2022-09-07T03:32:04.180Z,100797.41
2022-09-07T03:42:07.330Z,100803.63
2022-09-07T03:52:10.673Z,100804.25
2022-09-07T04:02:14.362Z,100824.53
2022-09-07T04:12:17.772Z,100818.78
2022-09-07T04:22:20.998Z,100820.69
2022-09-07T04:32:24.013Z,100829.38
2022-09-07T04:42:26.941Z,100829.38
2022-09-07T04:52:29.948Z,100841.16
2022-09-07T05:02:33.603Z,100832.50
2022-09-07T05:12:36.531Z,100820.53
2022-09-07T05:22:41.220Z,100834.41
2022-09-07T05:32:47.631Z,100836.97
2022-09-07T05:42:50.700Z,100834.91
2022-09-07T05:52:53.931Z,100826.03
2022-09-07T06:02:56.923Z,100839.63
2022-09-07T06:13:00.010Z,100846.25
2022-09-07T06:23:02.990Z,100854.50
2022-09-07T06:33:05.918Z,100865.72
2022-09-07T06:43:09.612Z,100863.84
2022-09-07T07:03:36.510Z,100865.00
2022-09-07T07:13:41.100Z,100866.12
2022-09-07T07:23:44.198Z,100876.34
2022-09-07T07:33:48.423Z,100878.94
2022-09-07T07:44:00.529Z,100867.69
2022-09-07T07:54:03.747Z,100887.06
2022-09-07T08:04:06.674Z,100876.16
2022-09-07T08:14:09.687Z,100864.31
2022-09-07T08:24:12.584Z,100846.69
2022-09-07T08:34:15.735Z,100847.84
2022-09-07T08:44:41.582Z,100830.44
2022-09-07T08:54:53.317Z,100834.50
2022-09-07T09:15:34.287Z,100823.03
2022-09-07T09:25:40.065Z,100805.31
2022-09-07T09:35:44.574Z,100807.19
2022-09-07T09:56:14.565Z,100797.97
2022-09-07T10:06:19.567Z,100802.47
2022-09-07T10:16:40.435Z,100786.59
2022-09-07T10:26:44.909Z,100776.19
2022-09-07T10:37:00.087Z,100779.50
2022-09-07T10:47:24.835Z,100765.81
2022-09-07T10:57:49.143Z,100756.16
2022-09-07T11:07:52.300Z,100747.06
2022-09-07T11:18:01.162Z,100744.38
2022-09-07T11:28:14.675Z,100737.97
2022-09-07T11:38:31.084Z,100734.41
2022-09-07T11:48:46.032Z,100726.94
2022-09-07T11:59:05.414Z,100718.28
2022-09-07T12:09:17.051Z,100715.78
2022-09-07T12:19:25.333Z,100696.44
2022-09-07T12:29:30.027Z,100696.66
2022-09-07T12:39:34.502Z,100684.19
2022-09-07T12:50:12.342Z,100691.50
2022-09-07T13:00:39.139Z,100665.44
2022-09-07T13:10:43.897Z,100660.81
2022-09-07T13:21:06.810Z,100666.28
2022-09-07T13:31:51.692Z,100655.84
2022-09-07T13:41:59.101Z,100651.09
2022-09-07T13:52:17.134Z,100634.75
2022-09-07T14:02:24.036Z,100647.91
2022-09-07T14:12:31.444Z,100644.78
2022-09-07T14:22:35.591Z,100633.16
2022-09-07T14:32:38.919Z,100617.53
2022-09-07T14:42:42.935Z,100615.88
2022-09-07T15:03:31.892Z,100613.50
2022-09-07T15:13:36.383Z,100605.44
2022-09-07T15:23:39.842Z,100600.47
2022-09-07T15:33:42.858Z,100584.72
2022-09-07T15:43:47.833Z,100590.19
2022-09-07T15:54:08.017Z,100585.22
2022-09-07T16:04:15.561Z,100568.50
2022-09-07T16:14:18.537Z,100575.97
2022-09-07T16:24:21.505Z,100574.72
2022-09-07T16:34:24.853Z,100569.66
2022-09-07T16:44:28.125Z,100568.78
2022-09-07T16:54:32.657Z,100574.59
2022-09-07T17:04:35.624Z,100576.56
2022-09-07T17:14:40.140Z,100586.72
2022-09-07T17:24:43.056Z,100579.25
2022-09-07T17:34:45.996Z,100578.84
2022-09-07T17:44:52.777Z,100595.22
2022-09-07T17:54:57.968Z,100609.19
2022-09-07T18:05:02.768Z,100609.75
2022-09-07T18:15:06.715Z,100622.78
2022-09-07T18:25:10.439Z,100641.16
2022-09-07T18:35:13.877Z,100633.41
2022-09-07T18:45:33.694Z,100631.91
2022-09-07T18:55:36.979Z,100644.41
2022-09-07T19:05:56.436Z,100653.06
2022-09-07T19:16:14.645Z,100623.72
2022-09-07T19:26:18.010Z,100639.59
2022-09-07T19:36:21.687Z,100637.84
2022-09-07T19:46:25.325Z,100629.12
2022-09-07T19:56:28.948Z,100634.66
2022-09-07T20:06:34.845Z,100621.38
2022-09-07T20:16:39.686Z,100609.41
2022-09-07T20:26:43.059Z,100602.16
2022-09-07T20:36:49.507Z,100624.88
2022-09-07T20:46:52.504Z,100614.91
2022-09-07T20:56:55.556Z,100616.34
2022-09-07T21:06:58.533Z,100624.75
2022-09-07T21:17:03.893Z,100628.75
2022-09-07T21:27:07.836Z,100617.09
2022-09-07T21:37:10.840Z,100603.78
2022-09-07T21:47:13.880Z,100608.41
2022-09-07T21:57:16.896Z,100601.84
2022-09-07T22:07:20.545Z,100576.44
2022-09-07T22:17:23.528Z,100602.66
2022-09-07T22:27:26.538Z,100600.56
2022-09-07T22:37:30.626Z,100599.41
2022-09-07T22:47:33.751Z,100598.69
2022-09-07T22:57:37.565Z,100595.84
2022-09-07T23:07:42.231Z,100594.00
2022-09-07T23:17:45.751Z,100593.31
2022-09-07T23:27:48.986Z,100589.44
2022-09-07T23:37:52.009Z,100582.38
2022-09-07T23:47:54.888Z,100586.66
2022-09-07T23:57:57.892Z,100587.97
